Flight Track Log - Related Links

Times and Time Zones

All times are in EDT time to prevent confusion due to time zone crossing. See the ASH3788 flight status page for this flight to view local times or setup timezone preferences in your user account.

Time Position Orientation Groundspeed Altitude Reporting Facility
EDT Latitude Longitude Course Direction KTS MPH feet Rate Location/Type
Sat 10:39:10 PM 42.0000 -87.9333 86° East 164 189 1,900  Level Chicago TRACON
Sat 10:40:10 PM 42.0500 -87.8833 37° Northeast 230 265 4,200 1,879 Climbing Chicago TRACON
Sat 10:40:49 PM 42.0500 -87.8425 90° East 251 289 5,000 2,340 Climbing Chicago Center
Sat 10:41:00 PM 42.1367 -87.4346 63° Northeast  Level FlightAware Approximate
Sat 10:41:50 PM 42.0661 -87.7361 78° East 286 329 8,100  Level Chicago Center
Sat 10:42:00 PM 42.1921 -87.2738 66° East  Level FlightAware Approximate
Sat 10:42:51 PM 42.0825 -87.6264 79° East 297 342 10,600  Level Chicago Center
Sat 10:43:00 PM 42.2460 -87.1120 66° East  Level FlightAware Approximate
Sat 10:43:52 PM 42.1219 -87.5142 65° Northeast 328 377 12,200  Level Chicago Center
Sat 10:44:00 PM 42.2696 -86.9405 86° East  Level FlightAware Approximate
Sat 10:44:53 PM 42.1792 -87.3525 64° Northeast 401 461 13,400  Level Chicago Center
Sat 10:45:53 PM 42.2289 -87.2078 65° Northeast 425 489 15,200 1,736 Climbing Chicago Center
Sat 10:46:54 PM 42.2781 -87.0556 66° East 441 507 16,900 1,574 Climbing Chicago Center
Sat 10:47:55 PM 42.2861 -86.8861 86° East 451 519 18,400 1,426 Climbing Chicago Center
Sat 10:48:56 PM 42.2933 -86.7158 87° East 456 525 19,800 1,279 Climbing Chicago Center
Sat 10:49:57 PM 42.2989 -86.5631 87° East 467 537 21,000 1,131 Climbing Chicago Center
Sat 10:50:58 PM 42.3056 -86.3719 87° East 471 542 22,100 1,190 Climbing Chicago Center
Sat 10:51:58 PM 42.3111 -86.1933 88° East 479 551 23,400 1,041 Climbing Chicago Center
Sat 10:52:59 PM 42.3156 -86.0114 88° East 487 560 24,200 836 Climbing Chicago Center
Sat 10:54:00 PM 42.3122 -85.8258 91° East 495 570 25,100 885 Climbing Chicago Center
Sat 10:55:01 PM 42.3092 -85.6025 91° East 501 577 26,000 1,091 Climbing Chicago Center
Sat 10:56:01 PM 42.3072 -85.4150 91° East 502 578 27,300 1,438 Climbing Chicago Center
Sat 10:57:02 PM 42.3047 -85.2322 91° East 493 567 28,900 1,377 Climbing Chicago Center
Sat 10:58:03 PM 42.3011 -85.0525 91° East 486 559 30,100 984 Climbing Chicago Center
Sat 10:59:04 PM 42.2978 -84.8744 91° East 479 551 30,900 744 Climbing Chicago Center
Sat 11:00:04 PM 42.2922 -84.6928 92° East 484 557 31,600 694 Climbing Chicago Center
Sat 11:01:05 PM 42.2886 -84.5064 91° East 496 571 32,300 696 Climbing Chicago Center
Sat 11:01:56 PM 42.3053 -84.3317 83° East 489 563 32,900 649 Climbing Cleveland Center
Sat 11:02:56 PM 42.3322 -84.1392 79° East 504 580 33,500 600 Climbing Cleveland Center
Sat 11:03:56 PM 42.3586 -83.9553 79° East 509 586 34,100 600 Climbing Cleveland Center
Sat 11:04:56 PM 42.3850 -83.7656 79° East 509 586 34,700 450 Climbing Cleveland Center
Sat 11:05:56 PM 42.4083 -83.5950 79° East 504 580 35,000 150 Climbing Cleveland Center
Sat 11:06:56 PM 42.4136 -83.3817 88° East 504 580 35,000  Level Cleveland Center
Sat 11:07:56 PM 42.4219 -83.2019 86° East 517 595 35,000  Level Cleveland Center
Sat 11:08:56 PM 42.4283 -83.0081 87° East 517 595 35,000  Level Cleveland Center
Sat 11:09:56 PM 42.4364 -82.8114 87° East 517 595 35,000  Level Cleveland Center
Sat 11:10:56 PM 42.4400 -82.6231 88° East 512 589 35,000  Level Cleveland Center
Sat 11:11:56 PM 42.4453 -82.4289 88° East 512 589 35,000  Level Cleveland Center
Sat 11:12:56 PM 42.4503 -82.2350 88° East 512 589 35,000  Level Cleveland Center
Sat 11:13:56 PM 42.4550 -82.0408 88° East 512 589 35,000  Level Cleveland Center
Sat 11:14:56 PM 42.4594 -81.8469 88° East 512 589 35,000  Level Cleveland Center
Sat 11:15:56 PM 42.4656 -81.6528 87° East 512 589 35,000  Level Cleveland Center
Sat 11:16:56 PM 42.4714 -81.4614 88° East 512 589 35,000  Level Cleveland Center
Sat 11:17:56 PM 42.4750 -81.2617 89° East 517 595 35,000  Level Cleveland Center
Sat 11:18:56 PM 42.4781 -81.0672 89° East 518 596 35,000  Level Cleveland Center
Sat 11:19:56 PM 42.4808 -80.8506 89° East 518 596 35,000  Level Cleveland Center
Sat 11:20:56 PM 42.4831 -80.6564 89° East 518 596 35,000  Level Cleveland Center
Sat 11:21:56 PM 42.4914 -80.4508 87° East 524 603 35,000  Level Cleveland Center
Sat 11:22:56 PM 42.5244 -80.2536 77° East 529 609 35,000  Level Cleveland Center
Sat 11:23:56 PM 42.5589 -80.0506 77° East 540 621 35,000  Level Cleveland Center
Sat 11:24:56 PM 42.5975 -79.8528 75° East 540 621 35,000  Level Cleveland Center
Sat 11:25:56 PM 42.6294 -79.6547 78° East 540 621 35,000  Level Cleveland Center
Sat 11:26:56 PM 42.6653 -79.4567 76° East 540 621 35,000  Level Cleveland Center
Sat 11:27:56 PM 42.6986 -79.2583 77° East 540 621 35,000  Level Cleveland Center
Sat 11:28:56 PM 42.7294 -79.0625 78° East 540 621 35,000  Level Cleveland Center
Sat 11:29:56 PM 42.7622 -78.8667 77° East 535 616 35,000  Level Cleveland Center
Sat 11:30:56 PM 42.8111 -78.6728 71° East 528 608 35,000  Level Cleveland Center
Sat 11:31:56 PM 42.8706 -78.4925 66° East 528 608 35,000  Level Cleveland Center
Sat 11:32:56 PM 42.9339 -78.3033 65° Northeast 528 608 35,000  Level Cleveland Center
Sat 11:33:56 PM 42.9808 -78.1539 67° East 533 613 35,000  Level Cleveland Center
Sat 11:34:56 PM 43.0492 -77.9494 65° Northeast 528 608 35,000  Level Cleveland Center
Sat 11:35:56 PM 43.1072 -77.7622 67° East 528 608 35,000  Level Cleveland Center
Sat 11:37:58 PM 43.2292 -77.3825 66° East 535 616 35,000  Level Boston Center
Sat 11:38:58 PM 43.2914 -77.1906 66° East 535 616 35,000  Level Boston Center
Sat 11:40:00 PM 43.3514 -77.0008 66° East 541 623 35,000  Level Boston Center
Sat 11:41:00 PM 43.4133 -76.8025 67° East 547 629 35,000  Level Boston Center
Sat 11:41:58 PM 43.4817 -76.5928 66° East 547 629 35,000  Level Boston Center
Sat 11:42:59 PM 43.5428 -76.3961 67° East 553 636 35,000  Level Boston Center
Sat 11:44:00 PM 43.6036 -76.1994 67° East 553 636 35,000  Level Boston Center
Sat 11:44:58 PM 43.6597 -76.0078 68° East 548 631 35,000  Level Boston Center
Sat 11:46:00 PM 43.7200 -75.8131 67° East 548 631 35,000  Level Boston Center
Sat 11:46:59 PM 43.7778 -75.6147 68° East 553 636 35,000  Level Boston Center
Sat 11:47:59 PM 43.8283 -75.4392 68° East 548 631 35,000  Level Boston Center
Sat 11:49:01 PM 43.8875 -75.2431 67° East 548 631 35,000  Level Boston Center
Sat 11:49:58 PM 43.9422 -75.0439 69° East 548 631 35,000  Level Boston Center
Sat 11:51:00 PM 43.9986 -74.8442 69° East 548 631 35,000 -300 Level Boston Center
Sat 11:51:58 PM 44.0567 -74.6472 68° East 548 631 34,400 -1,932 Descending Boston Center
Sat 11:52:58 PM 44.1103 -74.4583 68° East 538 619 31,200 -3,400 Descending Boston Center
Sat 11:53:58 PM 44.1633 -74.2750 68° East 522 601 27,600 -6,492 Descending Boston Center
Sat 11:55:00 PM 44.2161 -74.0883 68° East 498 573 18,000 -4,650 Descending Boston Center
Sat 11:55:58 PM 44.2622 -73.9186 69° East 472 543 18,300 -2,017 Climbing Boston Center
Sat 11:56:59 PM 44.3058 -73.7631 69° East 445 512 14,000 -2,803 Descending Boston Center
Sat 11:58:00 PM 44.3428 -73.6303 69° East 385 443 12,600 -1,835 Descending Boston Center
Sat 11:59:00 PM 44.3731 -73.5206 69° East 324 373 10,300 -1,576 Descending Boston Center
Sat 11:59:58 PM 44.4258 -73.4372 48° Northeast 290 334 9,500 -1,119 Descending Boston Center
Sun 12:00:58 AM 44.4786 -73.3622 45° Northeast 269 310 8,100 -1,328 Descending Boston Center
Sun 12:02:00 AM 44.5328 -73.3486 10° North 201 231 6,800 -1,350 Descending Boston Center
Sun 12:02:58 AM 44.5742 -73.3697 340° North 168 193 5,400 -1,475 Descending Boston Center
Sun 12:03:58 AM 44.5706 -73.3142 95° East 108 124 3,900 -1,550 Descending Boston Center
Sun 12:04:58 AM 44.5458 -73.2731 130° Southeast 117 135 2,300 -1,131 Descending Boston Center
Sun 12:06:00 AM 44.5211 -73.2319 130° Southeast 132 152 1,600 -738 Descending Boston Center
Sun 12:07:00 AM 44.4964 -73.1939 132° Southeast 137 158 800 -661 Descending Boston Center
Sun 12:07:58 AM 44.4736 -73.1558 130° Southeast 137 158 300 -254 Descending Boston Center
Sun 12:08:58 AM 44.4694 -73.1528 152° Southeast 79 91 300 1,609 Level Boston Center
Sun 12:18:58 AM 44.4033 -73.0589 135° Southeast 79 91 18,000 1,475 Climbing Boston Center
Sun 12:20:58 AM 44.4033 -73.0589 13° North 79 91 18,000  Level Boston Center
Sun 12:22:59 AM 44.4033 -73.0589 13° North 79 91 18,000  Level Boston Center
Sun 12:24:58 AM 44.4033 -73.0589 13° North 79 91 18,000  Level Boston Center
Sun 12:27:00 AM 44.4033 -73.0589 13° North 79 91 18,000  Level Boston Center

Login

Don't have an account? Register now (free) for customized features, flight alerts, and more!